createdAt,value
2017-05-27T00:00:35.540Z,83.10
2017-05-27T00:03:05.180Z,84.90
2017-05-27T00:05:34.830Z,83.90
2017-05-27T00:08:04.128Z,84.40
2017-05-27T00:10:33.237Z,85.60
2017-05-27T00:13:02.270Z,84.40
2017-05-27T00:15:31.304Z,85.10
2017-05-27T00:18:00.607Z,84.20
2017-05-27T00:20:30.715Z,87.00
2017-05-27T00:22:59.460Z,87.80
2017-05-27T00:25:27.935Z,88.20
2017-05-27T00:27:56.605Z,86.60
2017-05-27T00:30:25.192Z,86.70
2017-05-27T00:32:53.760Z,85.50
2017-05-27T00:35:22.035Z,83.30
2017-05-27T00:37:50.484Z,82.00
2017-05-27T00:40:18.989Z,82.30
2017-05-27T00:42:47.275Z,83.90
2017-05-27T00:45:15.827Z,83.60
2017-05-27T00:47:44.461Z,84.60
2017-05-27T00:50:12.786Z,82.20
2017-05-27T00:52:42.456Z,83.60
2017-05-27T00:55:11.483Z,83.20
2017-05-27T00:57:40.361Z,84.70
2017-05-27T01:00:09.530Z,85.70
2017-05-27T01:02:38.720Z,85.60
2017-05-27T01:05:08.000Z,84.90
2017-05-27T01:07:37.614Z,85.20
2017-05-27T01:10:06.591Z,85.30
2017-05-27T01:12:36.520Z,86.20
2017-05-27T01:15:05.986Z,85.80
2017-05-27T01:17:35.073Z,86.20
2017-05-27T01:20:04.335Z,86.20
2017-05-27T01:22:33.653Z,83.80
2017-05-27T01:25:02.726Z,86.30
2017-05-27T01:27:31.218Z,84.50
2017-05-27T01:29:59.728Z,84.60
2017-05-27T01:32:29.163Z,87.30
2017-05-27T01:34:58.675Z,88.50
2017-05-27T01:37:28.198Z,87.20
2017-05-27T01:39:56.812Z,86.90
2017-05-27T01:42:25.150Z,87.60
2017-05-27T01:44:53.431Z,87.10
2017-05-27T01:47:21.903Z,87.10
2017-05-27T01:49:50.287Z,88.50
2017-05-27T01:52:18.627Z,88.40
2017-05-27T01:54:47.011Z,87.10
2017-05-27T01:57:15.442Z,89.20
2017-05-27T01:59:43.814Z,88.70
2017-05-27T02:02:12.354Z,85.80
2017-05-27T02:04:40.690Z,85.40
2017-05-27T02:07:08.998Z,84.40
2017-05-27T02:09:37.359Z,84.80
2017-05-27T02:12:05.863Z,85.10
2017-05-27T02:14:34.303Z,86.40
2017-05-27T02:17:02.741Z,88.10
2017-05-27T02:19:31.124Z,87.00
2017-05-27T02:21:59.594Z,88.10
2017-05-27T02:24:28.159Z,89.50
2017-05-27T02:26:56.552Z,88.00
2017-05-27T02:29:25.169Z,90.10
2017-05-27T02:31:53.566Z,90.00
2017-05-27T02:34:22.011Z,89.50
2017-05-27T02:36:50.532Z,86.80
2017-05-27T02:39:18.852Z,86.70
2017-05-27T02:41:47.443Z,87.80
2017-05-27T02:44:16.053Z,86.00
2017-05-27T02:46:44.549Z,86.60
2017-05-27T02:49:13.211Z,85.10
2017-05-27T02:51:41.555Z,85.70
2017-05-27T02:54:09.895Z,86.60
2017-05-27T02:56:38.240Z,86.90
2017-05-27T02:59:06.800Z,88.10
2017-05-27T03:01:35.138Z,85.50
2017-05-27T03:04:03.466Z,86.90
2017-05-27T03:06:31.985Z,87.40
2017-05-27T03:09:00.359Z,89.40
2017-05-27T03:11:28.991Z,90.10
2017-05-27T03:13:57.337Z,87.00
2017-05-27T03:16:25.627Z,88.20
2017-05-27T03:18:54.093Z,89.20
2017-05-27T03:21:22.697Z,90.30
2017-05-27T03:26:26.027Z,89.60
2017-05-27T03:28:54.316Z,89.80
2017-05-27T03:31:22.664Z,90.00
2017-05-27T03:33:50.982Z,89.30
2017-05-27T03:36:19.264Z,90.00
2017-05-27T03:38:47.554Z,90.30
2017-05-27T03:41:15.877Z,90.50
2017-05-27T03:43:44.207Z,86.60
2017-05-27T03:46:12.490Z,90.30
2017-05-27T03:48:40.775Z,90.20
2017-05-27T03:51:09.105Z,89.80
2017-05-27T03:53:37.392Z,88.40
2017-05-27T03:56:05.895Z,87.90
2017-05-27T03:58:34.198Z,87.80
2017-05-27T04:01:03.859Z,87.60
2017-05-27T04:03:32.193Z,87.80
2017-05-27T04:06:00.514Z,85.30
2017-05-27T04:08:28.836Z,83.90
2017-05-27T04:10:57.118Z,83.70
2017-05-27T04:13:25.406Z,84.70
2017-05-27T04:15:53.717Z,83.40
2017-05-27T04:18:21.996Z,83.80
2017-05-27T04:20:51.402Z,82.70
2017-05-27T04:23:19.696Z,84.70
2017-05-27T04:25:47.987Z,83.40
2017-05-27T04:28:16.309Z,85.60
2017-05-27T04:30:44.662Z,85.70
2017-05-27T04:33:12.980Z,86.10
2017-05-27T04:35:41.271Z,84.70
2017-05-27T04:38:09.600Z,83.60
2017-05-27T04:40:37.979Z,86.00
2017-05-27T04:43:06.269Z,82.80
2017-05-27T04:45:34.597Z,82.80
2017-05-27T04:48:02.889Z,84.60
2017-05-27T04:50:31.174Z,82.60
2017-05-27T04:52:59.487Z,83.20
2017-05-27T04:55:27.772Z,82.40
2017-05-27T04:57:56.084Z,81.90
2017-05-27T05:00:24.401Z,80.40
2017-05-27T05:02:52.696Z,82.00
2017-05-27T05:05:21.375Z,80.90
2017-05-27T05:07:50.792Z,78.70
2017-05-27T05:10:20.238Z,80.40
2017-05-27T05:12:49.461Z,80.00
2017-05-27T05:15:18.518Z,77.40
2017-05-27T05:17:48.928Z,78.70
2017-05-27T05:20:17.961Z,78.20
2017-05-27T05:22:47.119Z,78.30
2017-05-27T05:25:16.556Z,77.80
2017-05-27T05:27:45.594Z,75.20
2017-05-27T05:30:14.783Z,77.20
2017-05-27T05:32:43.148Z,75.80
2017-05-27T05:35:11.431Z,73.20
2017-05-27T05:37:39.750Z,75.10
2017-05-27T05:40:08.038Z,74.00
2017-05-27T05:42:36.562Z,73.10
2017-05-27T05:45:04.888Z,70.70
2017-05-27T05:47:33.180Z,71.50
2017-05-27T05:50:01.618Z,70.70
2017-05-27T05:52:29.917Z,70.00
2017-05-27T05:54:58.204Z,69.70
2017-05-27T05:57:26.752Z,68.60
2017-05-27T05:59:55.030Z,68.20
2017-05-27T06:02:23.318Z,68.20
2017-05-27T06:04:51.635Z,67.50
2017-05-27T06:07:19.926Z,65.90
2017-05-27T06:09:48.212Z,66.00
2017-05-27T06:12:16.540Z,66.00
2017-05-27T06:14:44.826Z,66.00
2017-05-27T06:17:13.475Z,65.60
2017-05-27T06:19:41.794Z,64.70
2017-05-27T06:22:10.096Z,64.90
2017-05-27T06:24:38.437Z,64.30
2017-05-27T06:27:06.714Z,64.40
2017-05-27T06:29:35.001Z,64.30
2017-05-27T06:32:03.652Z,63.80
2017-05-27T06:34:31.986Z,63.30
2017-05-27T06:37:00.286Z,63.40
2017-05-27T06:39:28.616Z,63.00
2017-05-27T06:41:56.903Z,63.20
2017-05-27T06:44:25.214Z,62.30
2017-05-27T06:46:53.527Z,62.10
2017-05-27T06:49:21.803Z,62.60
2017-05-27T06:51:50.129Z,61.70
2017-05-27T06:54:18.470Z,61.70
2017-05-27T06:56:46.789Z,62.60
2017-05-27T06:59:15.127Z,60.70
2017-05-27T07:01:43.422Z,60.20
2017-05-27T07:04:11.716Z,60.10
2017-05-27T07:06:40.055Z,59.80
2017-05-27T07:09:08.351Z,59.80
2017-05-27T07:11:36.705Z,59.40
2017-05-27T07:14:05.000Z,58.60
2017-05-27T07:16:33.330Z,60.40
2017-05-27T07:19:01.649Z,58.70
2017-05-27T07:21:29.940Z,58.60
2017-05-27T07:23:58.289Z,57.80
2017-05-27T07:26:26.584Z,58.10
2017-05-27T07:28:54.873Z,57.90
2017-05-27T07:31:23.189Z,57.40
2017-05-27T07:33:51.477Z,56.30
2017-05-27T07:36:19.793Z,59.10
2017-05-27T07:38:48.095Z,57.90
2017-05-27T07:41:16.415Z,56.20
2017-05-27T07:43:44.700Z,56.40
2017-05-27T07:46:12.996Z,58.50
2017-05-27T07:48:41.660Z,53.60
2017-05-27T07:51:09.940Z,53.60
2017-05-27T07:53:38.244Z,54.00
2017-05-27T07:56:06.577Z,54.00
2017-05-27T07:58:34.906Z,52.20
2017-05-27T08:01:03.340Z,52.20
2017-05-27T08:03:31.628Z,52.10
2017-05-27T08:05:59.994Z,52.00
2017-05-27T08:08:28.328Z,52.80
2017-05-27T08:10:56.602Z,52.10
2017-05-27T08:13:24.888Z,50.30
2017-05-27T08:15:53.216Z,51.10
2017-05-27T08:18:21.508Z,55.00
2017-05-27T08:20:49.839Z,54.00
2017-05-27T08:23:18.123Z,50.50
2017-05-27T08:25:46.410Z,51.70
2017-05-27T08:28:14.757Z,49.80
2017-05-27T08:30:43.048Z,47.80
2017-05-27T08:33:29.141Z,50.60
2017-05-27T08:35:57.767Z,50.50
2017-05-27T08:38:26.044Z,48.90
2017-05-27T08:40:54.413Z,44.50
2017-05-27T08:43:22.688Z,49.70
2017-05-27T08:45:51.046Z,47.90
2017-05-27T08:48:19.341Z,46.50
2017-05-27T08:50:47.631Z,46.10
2017-05-27T08:53:16.172Z,45.20
2017-05-27T08:55:44.450Z,42.80
2017-05-27T08:58:12.776Z,42.90
2017-05-27T09:00:41.077Z,41.70
2017-05-27T09:03:09.356Z,45.70
2017-05-27T09:05:37.712Z,45.70
2017-05-27T09:08:06.801Z,42.90
2017-05-27T09:10:35.084Z,43.90
2017-05-27T09:13:03.438Z,43.00
2017-05-27T09:15:31.732Z,45.60
2017-05-27T09:18:00.053Z,46.50
2017-05-27T09:20:28.338Z,43.50
2017-05-27T09:22:56.659Z,42.50
2017-05-27T09:25:24.943Z,43.30
2017-05-27T09:27:53.276Z,42.10
2017-05-27T09:30:21.557Z,44.30
2017-05-27T09:32:49.839Z,49.90
2017-05-27T09:35:18.193Z,43.90
2017-05-27T09:37:46.495Z,47.70
2017-05-27T09:40:14.898Z,41.60
2017-05-27T09:42:43.213Z,42.30
2017-05-27T09:45:11.540Z,42.30
2017-05-27T09:47:39.931Z,42.00
2017-05-27T09:50:08.211Z,42.90
2017-05-27T09:52:36.805Z,47.50
2017-05-27T09:55:05.096Z,44.00
2017-05-27T09:57:33.666Z,46.50
2017-05-27T10:00:01.987Z,43.40
2017-05-27T10:02:30.288Z,44.60
2017-05-27T10:04:58.615Z,41.70
2017-05-27T10:07:26.924Z,43.00
2017-05-27T10:09:55.218Z,44.10
2017-05-27T10:12:23.530Z,39.70
2017-05-27T10:14:51.811Z,43.10
2017-05-27T10:17:20.148Z,40.10
2017-05-27T10:19:48.432Z,40.60
2017-05-27T10:22:16.724Z,40.00
2017-05-27T10:24:45.047Z,40.40
2017-05-27T10:27:13.380Z,44.30
2017-05-27T10:29:41.719Z,41.20
2017-05-27T10:32:10.020Z,40.90
2017-05-27T10:34:38.308Z,42.00
2017-05-27T10:37:06.619Z,43.30
2017-05-27T10:39:34.916Z,40.40
2017-05-27T10:42:03.231Z,41.60
2017-05-27T10:44:31.506Z,40.90
2017-05-27T10:46:59.904Z,43.20
2017-05-27T10:49:28.188Z,39.80
2017-05-27T10:51:56.556Z,39.30
2017-05-27T10:54:24.871Z,39.40
2017-05-27T10:56:53.177Z,43.00
2017-05-27T10:59:21.467Z,40.20
2017-05-27T11:01:49.788Z,43.30
2017-05-27T11:04:18.071Z,39.50
2017-05-27T11:06:46.351Z,39.60
2017-05-27T11:09:14.688Z,39.40
2017-05-27T11:11:43.079Z,39.40
2017-05-27T11:14:11.373Z,39.00
2017-05-27T11:16:39.704Z,41.70
2017-05-27T11:19:07.988Z,38.70
2017-05-27T11:21:36.286Z,38.10
2017-05-27T11:24:04.602Z,37.50
2017-05-27T11:26:32.892Z,39.60
2017-05-27T11:29:01.187Z,39.00
2017-05-27T11:31:30.740Z,37.80
2017-05-27T11:33:59.072Z,38.60
2017-05-27T11:36:27.378Z,38.00
2017-05-27T11:38:55.761Z,37.60
2017-05-27T11:41:24.075Z,39.50
2017-05-27T11:43:52.636Z,36.80
2017-05-27T11:46:20.969Z,39.00
2017-05-27T11:48:49.257Z,43.30
2017-05-27T11:51:17.542Z,38.70
2017-05-27T11:53:45.910Z,39.00
2017-05-27T11:56:14.199Z,42.20
2017-05-27T11:58:42.586Z,40.10
2017-05-27T12:01:10.895Z,43.30
2017-05-27T12:03:39.462Z,44.10
2017-05-27T12:06:07.856Z,37.30
2017-05-27T12:08:36.147Z,37.80
2017-05-27T12:11:04.432Z,37.70
2017-05-27T12:13:32.776Z,39.80
2017-05-27T12:16:01.072Z,39.90
2017-05-27T12:18:29.415Z,36.80
2017-05-27T12:20:57.744Z,37.00
2017-05-27T12:23:26.032Z,35.70
2017-05-27T12:25:54.330Z,40.00
2017-05-27T12:28:22.956Z,35.20
2017-05-27T12:30:51.234Z,35.00
2017-05-27T12:33:19.524Z,35.40
2017-05-27T12:35:47.839Z,36.60
2017-05-27T12:38:16.242Z,35.40
2017-05-27T12:40:44.542Z,35.70
2017-05-27T12:43:12.811Z,36.80
2017-05-27T12:45:41.139Z,37.40
2017-05-27T12:48:09.419Z,34.40
2017-05-27T12:50:38.134Z,36.60
2017-05-27T12:53:06.423Z,32.60
2017-05-27T12:55:34.767Z,33.10
2017-05-27T12:58:03.101Z,32.00
2017-05-27T13:00:31.378Z,33.20
2017-05-27T13:02:59.679Z,33.70
2017-05-27T13:05:28.003Z,34.00
2017-05-27T13:07:56.297Z,31.20
2017-05-27T13:10:24.660Z,30.90
2017-05-27T13:12:52.939Z,33.00
2017-05-27T13:15:21.316Z,30.00
2017-05-27T13:17:49.696Z,34.20
2017-05-27T13:20:18.075Z,33.30
2017-05-27T13:22:46.452Z,32.40
2017-05-27T13:25:29.681Z,29.60
2017-05-27T13:27:58.060Z,28.90
2017-05-27T13:30:26.378Z,29.10
2017-05-27T13:32:54.672Z,31.30
2017-05-27T13:35:22.963Z,29.00
2017-05-27T13:37:51.275Z,28.10
2017-05-27T13:40:19.559Z,27.50
2017-05-27T13:42:47.900Z,27.80
2017-05-27T13:45:16.183Z,27.20
2017-05-27T13:47:44.480Z,26.50
2017-05-27T13:50:13.029Z,27.30
2017-05-27T13:52:41.306Z,25.90
2017-05-27T13:55:09.622Z,26.10
2017-05-27T13:57:37.912Z,25.80
2017-05-27T14:00:06.212Z,25.40
2017-05-27T14:02:34.533Z,25.60
2017-05-27T14:05:02.830Z,25.10
2017-05-27T14:07:31.152Z,25.30
2017-05-27T14:09:59.715Z,25.00
2017-05-27T14:12:28.004Z,25.30
2017-05-27T14:14:56.314Z,24.50
2017-05-27T14:17:24.604Z,24.20
2017-05-27T14:19:52.917Z,23.80
2017-05-27T14:22:21.208Z,23.80
2017-05-27T14:24:49.554Z,24.70
2017-05-27T14:27:17.894Z,23.50
2017-05-27T14:29:46.194Z,23.80
2017-05-27T14:32:14.591Z,27.00
2017-05-27T14:34:42.909Z,26.20
2017-05-27T14:37:11.523Z,25.00
2017-05-27T14:39:39.830Z,24.20
2017-05-27T14:42:08.211Z,22.30
2017-05-27T14:44:36.535Z,23.00
2017-05-27T14:47:04.861Z,24.80
2017-05-27T14:49:33.247Z,21.80
2017-05-27T14:52:01.527Z,22.60
2017-05-27T14:54:29.897Z,21.50
2017-05-27T14:56:58.498Z,22.60
2017-05-27T14:59:26.779Z,23.10
2017-05-27T15:01:55.099Z,23.40
2017-05-27T15:04:23.383Z,23.30
2017-05-27T15:06:51.709Z,23.80
2017-05-27T15:09:19.991Z,22.50
2017-05-27T15:11:48.319Z,23.00
2017-05-27T15:14:16.619Z,23.50
2017-05-27T15:16:44.909Z,22.30
2017-05-27T15:19:13.230Z,21.40
2017-05-27T15:21:41.526Z,21.10
2017-05-27T15:24:09.853Z,21.80
2017-05-27T15:26:38.148Z,21.10
2017-05-27T15:29:06.451Z,21.60
2017-05-27T15:31:34.764Z,21.80
2017-05-27T15:34:03.088Z,22.00
2017-05-27T15:36:31.407Z,22.00
2017-05-27T15:38:59.703Z,22.50
2017-05-27T15:41:28.264Z,21.10
2017-05-27T15:43:56.547Z,20.50
2017-05-27T15:46:24.841Z,20.30
2017-05-27T15:48:53.156Z,20.30
2017-05-27T15:51:21.723Z,19.50
2017-05-27T15:53:50.304Z,20.60
2017-05-27T15:56:18.596Z,22.20
2017-05-27T15:58:46.945Z,21.60
2017-05-27T16:01:15.236Z,19.90
2017-05-27T16:03:43.521Z,20.20
2017-05-27T16:06:11.876Z,19.60
2017-05-27T16:08:40.168Z,20.60
2017-05-27T16:11:08.455Z,19.30
2017-05-27T16:13:36.787Z,20.20
2017-05-27T16:16:05.081Z,19.30
2017-05-27T16:18:33.687Z,18.80
2017-05-27T16:21:02.037Z,19.90
2017-05-27T16:23:30.343Z,17.90
2017-05-27T16:25:58.627Z,17.80
2017-05-27T16:28:26.980Z,18.40
2017-05-27T16:30:55.360Z,17.90
2017-05-27T16:33:23.648Z,17.60
2017-05-27T16:35:51.940Z,17.00
2017-05-27T16:38:20.242Z,18.10
2017-05-27T16:40:48.535Z,17.40
2017-05-27T16:43:16.948Z,16.60
2017-05-27T16:45:45.327Z,16.40
2017-05-27T16:48:13.927Z,16.20
2017-05-27T16:50:42.241Z,16.70
2017-05-27T16:53:10.527Z,15.50
2017-05-27T16:55:38.892Z,14.00
2017-05-27T16:58:07.187Z,14.40
2017-05-27T17:00:35.466Z,14.40
2017-05-27T17:03:03.792Z,13.40
2017-05-27T17:05:32.068Z,13.30
2017-05-27T17:08:00.358Z,13.90
2017-05-27T17:10:28.683Z,13.10
2017-05-27T17:12:57.209Z,13.00
2017-05-27T17:15:25.536Z,13.90
2017-05-27T17:17:53.900Z,14.30
2017-05-27T17:20:22.272Z,15.00
2017-05-27T17:22:50.575Z,15.30
2017-05-27T17:25:18.888Z,15.80
2017-05-27T17:27:47.219Z,15.80
2017-05-27T17:30:15.860Z,14.60
2017-05-27T17:32:44.183Z,15.20
2017-05-27T17:35:12.503Z,15.30
2017-05-27T17:37:40.785Z,16.70
2017-05-27T17:40:09.119Z,16.30
2017-05-27T17:42:37.415Z,16.00
2017-05-27T17:45:05.710Z,15.70
2017-05-27T17:47:34.044Z,15.70
2017-05-27T17:50:02.340Z,15.60
2017-05-27T17:52:30.666Z,15.70
2017-05-27T17:54:58.953Z,16.10
2017-05-27T17:57:27.235Z,16.00
2017-05-27T17:59:55.548Z,16.60
2017-05-27T18:02:23.853Z,16.90
2017-05-27T18:04:52.450Z,16.80
2017-05-27T18:07:20.739Z,16.70
2017-05-27T18:09:49.056Z,17.40
2017-05-27T18:12:17.381Z,18.10
2017-05-27T18:14:45.697Z,18.90
2017-05-27T18:17:14.048Z,19.90
2017-05-27T18:19:42.331Z,21.00
2017-05-27T18:22:10.614Z,22.40
2017-05-27T18:24:38.956Z,24.30
2017-05-27T18:27:07.239Z,24.50
2017-05-27T18:29:35.528Z,24.80
2017-05-27T18:32:03.864Z,25.40
2017-05-27T18:34:32.149Z,26.00
2017-05-27T18:37:00.443Z,26.40
2017-05-27T18:39:29.039Z,25.90
2017-05-27T18:41:57.356Z,26.10
2017-05-27T18:44:25.658Z,27.30
2017-05-27T18:46:54.047Z,27.50
2017-05-27T18:49:22.357Z,28.40
2017-05-27T18:51:50.934Z,29.60
2017-05-27T18:54:19.268Z,30.50
2017-05-27T18:56:47.803Z,30.80
2017-05-27T18:59:16.143Z,32.20
2017-05-27T19:01:44.444Z,32.90
2017-05-27T19:04:12.795Z,33.00
2017-05-27T19:06:41.198Z,33.40
2017-05-27T19:09:09.495Z,34.00
2017-05-27T19:11:37.838Z,33.60
2017-05-27T19:14:06.132Z,33.60
2017-05-27T19:16:34.423Z,34.40
2017-05-27T19:19:02.740Z,35.40
2017-05-27T19:21:31.019Z,34.50
2017-05-27T19:23:59.341Z,35.10
2017-05-27T19:26:27.619Z,35.50
2017-05-27T19:28:55.955Z,35.90
2017-05-27T19:31:24.269Z,36.70
2017-05-27T19:33:52.623Z,36.20
2017-05-27T19:36:20.972Z,37.10
2017-05-27T19:38:49.289Z,36.70
2017-05-27T19:41:17.606Z,37.90
2017-05-27T19:43:45.961Z,37.90
2017-05-27T19:46:14.276Z,38.40
2017-05-27T19:48:42.651Z,36.90
2017-05-27T19:51:10.964Z,37.70
2017-05-27T19:53:39.279Z,38.50
2017-05-27T19:56:07.707Z,38.20
2017-05-27T19:58:36.007Z,38.10
2017-05-27T20:01:04.338Z,37.90
2017-05-27T20:03:32.634Z,37.90
2017-05-27T20:06:00.972Z,38.40
2017-05-27T20:08:29.254Z,38.30
2017-05-27T20:10:57.552Z,39.00
2017-05-27T20:13:26.115Z,38.70
2017-05-27T20:15:54.421Z,39.00
2017-05-27T20:18:22.770Z,39.40
2017-05-27T20:20:51.078Z,39.60
2017-05-27T20:23:19.377Z,39.50
2017-05-27T20:25:48.016Z,39.80
2017-05-27T20:28:16.299Z,40.00
2017-05-27T20:30:44.628Z,40.90
2017-05-27T20:33:12.917Z,40.20
2017-05-27T20:35:41.530Z,40.40
2017-05-27T20:38:09.823Z,40.40
2017-05-27T20:40:38.112Z,40.70
2017-05-27T20:43:06.551Z,40.50
2017-05-27T20:45:34.845Z,40.30
2017-05-27T20:48:03.154Z,39.80
2017-05-27T20:50:31.478Z,39.90
2017-05-27T20:52:59.831Z,39.80
2017-05-27T20:55:28.140Z,39.90
2017-05-27T20:57:56.480Z,40.20
2017-05-27T21:00:24.815Z,39.80
2017-05-27T21:02:53.129Z,40.00
2017-05-27T21:05:21.487Z,40.30
2017-05-27T21:07:49.780Z,40.40
2017-05-27T21:10:18.059Z,40.50
2017-05-27T21:12:46.389Z,40.20
2017-05-27T21:15:14.696Z,39.80
2017-05-27T21:17:43.035Z,40.20
2017-05-27T21:20:11.334Z,39.90
2017-05-27T21:22:39.636Z,39.90
2017-05-27T21:25:07.980Z,40.10
2017-05-27T21:27:36.299Z,39.90
2017-05-27T21:30:04.648Z,39.90
2017-05-27T21:32:33.004Z,40.20
2017-05-27T21:35:01.295Z,40.40
2017-05-27T21:37:29.636Z,40.80
2017-05-27T21:39:57.925Z,40.90
2017-05-27T21:42:26.236Z,41.60
2017-05-27T21:44:54.822Z,41.30
2017-05-27T21:47:23.164Z,42.00
2017-05-27T21:49:51.443Z,41.40
2017-05-27T21:52:19.761Z,41.50
2017-05-27T21:54:48.335Z,41.80
2017-05-27T21:57:16.664Z,41.60
2017-05-27T21:59:44.952Z,41.90
2017-05-27T22:02:13.227Z,41.80
2017-05-27T22:04:41.555Z,42.00
2017-05-27T22:07:09.834Z,42.60
2017-05-27T22:09:38.127Z,42.70
2017-05-27T22:12:06.451Z,43.10
2017-05-27T22:14:34.737Z,43.60
2017-05-27T22:17:03.019Z,43.70
2017-05-27T22:19:31.355Z,44.30
2017-05-27T22:21:59.642Z,44.20
2017-05-27T22:24:27.939Z,44.70
2017-05-27T22:26:56.256Z,44.60
2017-05-27T22:29:24.576Z,44.80
2017-05-27T22:31:52.887Z,45.00
2017-05-27T22:34:21.620Z,45.00
2017-05-27T22:36:49.941Z,45.20
2017-05-27T22:39:18.232Z,45.60
2017-05-27T22:41:46.563Z,45.60
2017-05-27T22:44:14.897Z,46.00
2017-05-27T22:46:43.184Z,46.10
2017-05-27T22:49:11.505Z,46.40
2017-05-27T22:51:39.787Z,46.60
2017-05-27T22:54:08.191Z,46.80
2017-05-27T22:56:36.471Z,47.00
2017-05-27T22:59:04.761Z,47.20
2017-05-27T23:01:33.083Z,47.50
2017-05-27T23:04:01.400Z,48.10
2017-05-27T23:06:29.726Z,48.30
2017-05-27T23:08:58.047Z,48.40
2017-05-27T23:11:26.331Z,48.60
2017-05-27T23:13:54.664Z,48.50
2017-05-27T23:16:22.948Z,48.90
2017-05-27T23:18:51.237Z,48.80
2017-05-27T23:21:19.560Z,49.00
2017-05-27T23:23:47.911Z,49.00
2017-05-27T23:26:16.200Z,48.60
2017-05-27T23:28:44.493Z,49.70
2017-05-27T23:31:12.813Z,50.00
2017-05-27T23:33:41.128Z,50.10
2017-05-27T23:36:09.465Z,50.10
2017-05-27T23:38:37.770Z,49.90
2017-05-27T23:41:06.067Z,50.80
2017-05-27T23:43:34.664Z,51.10
2017-05-27T23:46:02.953Z,51.50
2017-05-27T23:48:31.237Z,51.60
2017-05-27T23:50:59.565Z,51.70
2017-05-27T23:53:27.852Z,52.10
2017-05-27T23:55:56.343Z,52.50
2017-05-27T23:58:24.629Z,52.60
